Condiciones actuales en los principales Aeropuertos de España-Datos Metar

 

LEAL - Alicante
Actualización: 20/01/2019 12:00
Partly Cloudy
Partly Cloudy
 Viento del SSO
Viento: SSO 7 km/h
Temperatura: 15°C
Rocío: 10°C
Humedad: 72%
Barómetro: 1008 hPa
Nubosidad: Partly Cloudy
Visibilidad: 10 km
Cloud details: Few Clouds 1067 m
Partly Cloudy 1981 m
2019/01/20 11:00 LEAL 201100Z 21004KT 160V270 9999 FEW035 SCT065 15/10 Q1008 NOSIG
LEAB - Albacete
Actualización: 20/01/2019 12:00
Mist, Cubierto
Mist, Cubierto
 Viento del NO
Viento: NO 22 km/h
Temperatura: 7°C
Wind Chill: 4°C
Rocío: 6°C
Humedad: 93%
Barómetro: 1010 hPa
Resumen: Mist
Nubosidad: Cubierto
Visibilidad: 5 km
Cloud details: Partly Cloudy 152 m
Mostly Cloudy 549 m
Cubierto 914 m
2019/01/20 11:00 LEAB 201100Z 31012KT 5000 BR SCT005 BKN018 OVC030 07/06 Q1010 NOSIG
LEAM - Almería
Actualización: 20/01/2019 12:00
Partly Cloudy
Partly Cloudy
 Viento del O
Viento: O 6 km/h
Temperatura: 14°C
Rocío: 8°C
Humedad: 67%
Barómetro: 1009 hPa
Nubosidad: Partly Cloudy
Visibilidad: 10 km
Cloud details: Partly Cloudy 2743 m
2019/01/20 11:00 LEAM 201100Z 28003KT 220V340 9999 SCT090 14/08 Q1009
 
LEAS - Asturias/Aviles
Actualización: 20/01/2019 12:00
Mostly Cloudy
Mostly Cloudy
 Viento del ONO
Viento: ONO 13 km/h
Temperatura: 11°C
Rocío: 8°C
Humedad: 82%
Barómetro: 1019 hPa
Nubosidad: Mostly Cloudy
Visibilidad: 10 km
Cloud details: Few Clouds 457 m
Mostly Cloudy 1372 m
2019/01/20 11:00 LEAS 201100Z 30007KT 260V350 9999 FEW015TCU BKN045 11/08 Q1019 TEMPO 3000 SHRA BKN014 BKN020TCU
LEBZ - Badajoz/Talavera la Real
Actualización: 20/01/2019 12:00
Despejado
Despejado
 Viento del NNO
Viento: NNO 28 km/h
Temperatura: 12°C
Rocío: 5°C
Humedad: 63%
Barómetro: 1017 hPa
Resumen: Despejado
Visibilidad: greater than 10 km
2019/01/20 11:00 LEBZ 201100Z 34015KT 310V010 CAVOK 12/05 Q1017
LEBL - Barcelona
Actualización: 20/01/2019 12:00
LLuvia, Muy nuboso
LLuvia, Muy nuboso
 Viento del NNE
Viento: NNE 19 km/h
Temperatura: 9°C
Wind Chill: 6°C
Rocío: 8°C
Humedad: 94%
Barómetro: 1010 hPa
Resumen: LLuvia
Nubosidad: Mostly Cloudy
Visibilidad: 7 km
Cloud details: Partly Cloudy 213 m
Mostly Cloudy 335 m
2019/01/20 11:00 LEBL 201100Z 03010KT 350V050 7000 RA SCT007 BKN011 09/08 Q1010 NOSIG
 
LEBB - Bilbao
Actualización: 20/01/2019 12:18
Lluvia débil, Showers, Muy nuboso
Lluvia débil, Showers, Muy nuboso
 Viento del NNO
Viento: NNO 13 km/h
Temperatura: 9°C
Wind Chill: 7°C
Rocío: 7°C
Humedad: 87%
Barómetro: 1016 hPa
Resumen: Lluvia débil, Showers
Nubosidad: Mostly Cloudy
Visibilidad: 8 km
Cloud details: Few Clouds 366 m
Partly Cloudy 762 m
Mostly Cloudy 1219 m
2019/01/20 11:18 LEBB 201118Z 33007KT 290V020 8000 -SHRA FEW012 SCT025TCU BKN040 09/07 Q1016 TEMPO 3000 SHRA BKN020TCU
LEBG - Burgos/Villafría
Actualización: 20/01/2019 12:00
Partly Cloudy
Partly Cloudy
 Viento del NNO
Viento: NNO 19 km/h
Temperatura: 5°C
Wind Chill: 1°C
Rocío: 3°C
Humedad: 87%
Barómetro: 1014 hPa
Nubosidad: Partly Cloudy
Visibilidad: 10 km
Cloud details: Few Clouds 366 m
Partly Cloudy 640 m
2019/01/20 11:00 LEBG 201100Z 33010KT 300V010 9999 FEW012 SCT021 05/03 Q1014
LEBA - Córdoba
Actualización: 20/01/2019 12:00
Mostly Cloudy
Mostly Cloudy
 Viento del NNO
Viento: NNO 7 km/h
Temperatura: 13°C
Rocío: 8°C
Humedad: 72%
Barómetro: 1014 hPa
Nubosidad: Mostly Cloudy
Visibilidad: 10 km
Cloud details: Partly Cloudy 610 m
Mostly Cloudy 1219 m
2019/01/20 11:00 LEBA 201100Z 33004KT 280V010 9999 SCT020 BKN040 13/08 Q1014
 
LEGE - Gerona
Actualización: 20/01/2019 12:00
Mostly Cloudy
Mostly Cloudy
 Viento del NNE
Viento: NNE 11 km/h
Temperatura: 7°C
Wind Chill: 5°C
Rocío: 7°C
Humedad: 100%
Barómetro: 1011 hPa
Nubosidad: Mostly Cloudy
Visibilidad: 10 km
Cloud details: Few Clouds 610 m
Mostly Cloudy 2134 m
2019/01/20 11:00 LEGE 201100Z 03006KT 010V070 9999 FEW020 BKN070 07/07 Q1011
LEGR - Granada
Actualización: 20/01/2019 12:00
Mostly Cloudy
Mostly Cloudy
 Viento del O
Viento: O 17 km/h
Temperatura: 10°C
Wind Chill: 8°C
Rocío: 9°C
Humedad: 94%
Barómetro: 1012 hPa
Nubosidad: Mostly Cloudy
Visibilidad: 10 km
Cloud details: Few Clouds 274 m
Mostly Cloudy 610 m
Mostly Cloudy 914 m
2019/01/20 11:00 LEGR 201100Z 27009KT 240V300 9999 FEW009 BKN020 BKN030 10/09 Q1012
GCHI - Hierro
Actualización: 20/01/2019 12:00
Mostly Cloudy
Mostly Cloudy
 Viento del NNE
Viento: NNE 24 km/h
Temperatura: 20°C
Rocío: 14°C
Humedad: 69%
Barómetro: 1028 hPa
Nubosidad: Mostly Cloudy
Visibilidad: 10 km
Cloud details: Few Clouds 762 m
Mostly Cloudy 1341 m
2019/01/20 11:00 GCHI 201100Z 03013KT 350V060 9999 FEW025 BKN044 20/14 Q1028
 
LEIB - Ibiza
Actualización: 20/01/2019 12:00
Partly Cloudy
Partly Cloudy
 Viento del NO
Viento: NO 15 km/h
Temperatura: 15°C
Rocío: 9°C
Humedad: 68%
Barómetro: 1008 hPa
Nubosidad: Partly Cloudy
Visibilidad: 10 km
Cloud details: Few Clouds 701 m
Partly Cloudy 1189 m
2019/01/20 11:00 LEIB 201100Z 31008KT 270V360 9999 FEW023 SCT039 15/09 Q1008 NOSIG
LEJR - Jerez de la Frontera
Actualización: 20/01/2019 12:00
Few Clouds
Few Clouds
 Viento del ONO
Viento: ONO 24 km/h
Temperatura: 13°C
Rocío: 9°C
Humedad: 77%
Barómetro: 1016 hPa
Nubosidad: Few Clouds
Visibilidad: 10 km
Cloud details: Few Clouds 975 m
2019/01/20 11:00 LEJR 201100Z 29013KT 230V320 9999 FEW032 13/09 Q1016
LECO - A Coruña
Actualización: 20/01/2019 12:00
Few Clouds
Few Clouds
 Viento del N
Viento: N 20 km/h
Temperatura: 11°C
Rocío: 9°C
Humedad: 88%
Barómetro: 1021 hPa
Nubosidad: Few Clouds
Visibilidad: 10 km
Cloud details: Partly Cloudy 610 m
Few Clouds 914 m
2019/01/20 11:00 LECO 201100Z 36011KT 330V030 9999 SCT020TCU FEW030CB 11/09 Q1021 TEMPO SHRA
 
GCLA - La Palma
Actualización: 20/01/2019 12:00
Partly Cloudy
Partly Cloudy
 Viento del NE
Viento: NE 15 km/h, Racha: 33 km/h
Temperatura: 20°C
Rocío: 10°C
Humedad: 53%
Barómetro: 1028 hPa
Nubosidad: Partly Cloudy
Visibilidad: 10 km
Cloud details: Partly Cloudy 1219 m
2019/01/20 11:00 GCLA 201100Z 04008G18KT 340V090 9999 SCT040 20/10 Q1028
GCRR - Lanzarote
Actualización: 20/01/2019 12:00
Partly Cloudy
Partly Cloudy
 Viento del NNO
Viento: NNO 20 km/h
Temperatura: 20°C
Rocío: 10°C
Humedad: 53%
Barómetro: 1026 hPa
Nubosidad: Partly Cloudy
Visibilidad: 10 km
Cloud details: Partly Cloudy 1219 m
2019/01/20 11:00 GCRR 201100Z 34011KT 300V010 9999 SCT040 20/10 Q1026
GCLP - Las Palmas
Actualización: 20/01/2019 12:00
Mostly Cloudy
Mostly Cloudy
 Viento del N
Viento: N 20 km/h
Temperatura: 20°C
Rocío: 10°C
Humedad: 53%
Barómetro: 1027 hPa
Nubosidad: Mostly Cloudy
Visibilidad: 10 km
Cloud details: Mostly Cloudy 1219 m
2019/01/20 11:00 GCLP 201100Z 36011KT 330V030 9999 BKN040 20/10 Q1027 NOSIG
 
LELN - León
Actualización: 20/01/2019 12:00
Few Clouds
Few Clouds
 Viento del SO
Viento: SO 11 km/h
Temperatura: 4°C
Wind Chill: 1°C
Rocío: 1°C
Humedad: 81%
Barómetro: 1015 hPa
Nubosidad: Few Clouds
Visibilidad: 10 km
Cloud details: Few Clouds 1067 m
2019/01/20 11:00 LELN 201100Z 22006KT 190V250 9999 FEW035 04/01 Q1015
LELO - Logroño
Actualización: 20/01/2019 12:00
Mostly Cloudy
Mostly Cloudy
 Viento del O
Viento: O 28 km/h
Temperatura: 9°C
Wind Chill: 6°C
Rocío: 5°C
Humedad: 76%
Barómetro: 1014 hPa
Nubosidad: Mostly Cloudy
Visibilidad: 10 km
Cloud details: Few Clouds 762 m
Mostly Cloudy 914 m
2019/01/20 11:00 LELO 201100Z 27015KT 240V300 9999 FEW025 BKN030 09/05 Q1014
LECV - Madrid/Colmenar
Actualización: 20/01/2019 12:00
Few Clouds
Few Clouds
 Viento del varies
Viento: varies 11 km/h
Temperatura: 7°C
Wind Chill: 5°C
Rocío: 1°C
Humedad: 66%
Barómetro: 1013 hPa
Nubosidad: Few Clouds
Visibilidad: 10 km
Cloud details: Few Clouds 914 m
2019/01/20 11:00 LECV 201100Z VRB06KT 9999 FEW030 07/01 Q1013
 
LEMD - Madrid/Barajas
Actualización: 20/01/2019 12:00
Few Clouds
Few Clouds
 Viento del N
Viento: N 26 km/h, Racha: 46 km/h
Temperatura: 8°C
Wind Chill: 4°C
Rocío: 2°C
Humedad: 66%
Barómetro: 1014 hPa
Nubosidad: Few Clouds
Visibilidad: 10 km
Cloud details: Few Clouds 2012 m
2019/01/20 11:00 LEMD 201100Z 35014G25KT 310V020 9999 FEW066 08/02 Q1014 R88/29//95 NOSIG
LEVS - Madrid/Cuatro Vientos
Actualización: 20/01/2019 12:00
Despejado
Despejado
 Viento del N
Viento: N 13 km/h
Temperatura: 10°C
Wind Chill: 8°C
Rocío: 1°C
Humedad: 54%
Barómetro: 1014 hPa
Resumen: Despejado
Visibilidad: greater than 10 km
2019/01/20 11:00 LEVS 201100Z 35007KT 310V050 CAVOK 10/01 Q1014
LEGT - Madrid/Getafe
Actualización: 20/01/2019 12:00
Few Clouds
Few Clouds
 Viento del N
Viento: N 24 km/h, Racha: 46 km/h
Temperatura: 10°C
Wind Chill: 7°C
Rocío: 1°C
Humedad: 54%
Barómetro: 1014 hPa
Nubosidad: Few Clouds
Visibilidad: 10 km
Cloud details: Few Clouds 914 m
2019/01/20 11:00 LEGT 201100Z 36013G25KT 320V030 9999 FEW030 10/01 Q1014
 
LETO - Madrid/Torrejón
Actualización: 20/01/2019 12:00
Despejado
Despejado
 Viento del N
Viento: N 26 km/h, Racha: 44 km/h
Temperatura: 8°C
Wind Chill: 4°C
Rocío: 4°C
Humedad: 76%
Barómetro: 1013 hPa
Resumen: Despejado
Visibilidad: greater than 10 km
2019/01/20 11:00 LETO 201100Z 35014G24KT CAVOK 08/04 Q1013 NOSIG
LEMG - Málaga
Actualización: 20/01/2019 12:00
Partly Cloudy
Partly Cloudy
 Viento del ONO
Viento: ONO 20 km/h, Racha: 39 km/h
Temperatura: 15°C
Rocío: 10°C
Humedad: 72%
Barómetro: 1013 hPa
Nubosidad: Partly Cloudy
Visibilidad: 10 km
Cloud details: Partly Cloudy 853 m
Partly Cloudy 1341 m
2019/01/20 11:00 LEMG 201100Z 29011G21KT 9999 SCT028 SCT044 15/10 Q1013 NOSIG
GEML - Melilla
Actualización: 20/01/2019 12:00
LLuvia, Muy nuboso
LLuvia, Muy nuboso
 Viento del O
Viento: O 20 km/h
Temperatura: 16°C
Rocío: 11°C
Humedad: 72%
Barómetro: 1013 hPa
Resumen: LLuvia
Nubosidad: Mostly Cloudy
Visibilidad: 10 km
Cloud details: Partly Cloudy 853 m
Mostly Cloudy 1219 m
2019/01/20 11:00 GEML 201100Z 27011KT 240V320 9999 RA SCT028CB BKN040 16/11 Q1013
 
LEMH - Mahón
Actualización: 20/01/2019 12:00
Lluvia débil, Muy nuboso
Lluvia débil, Muy nuboso
 Viento del SSE
Viento: SSE 20 km/h
Temperatura: 11°C
Rocío: 8°C
Humedad: 82%
Barómetro: 1008 hPa
Resumen: Light Rain
Nubosidad: Mostly Cloudy
Visibilidad: 10 km
Cloud details: Partly Cloudy 549 m
Mostly Cloudy 975 m
2019/01/20 11:00 LEMH 201100Z 15011KT 9999 -RA SCT018 BKN032 11/08 Q1008
LEMO - Morón de La Frontera
Actualización: 20/01/2019 12:00
Mostly Cloudy
Mostly Cloudy
 Viento del O
Viento: O 17 km/h
Temperatura: 13°C
Rocío: 9°C
Humedad: 77%
Barómetro: 1015 hPa
Nubosidad: Mostly Cloudy
Visibilidad: 10 km
Cloud details: Few Clouds 610 m
Mostly Cloudy 975 m
2019/01/20 11:00 LEMO 201100Z 28009KT 9999 FEW020 BKN032 13/09 Q1015 NOSIG
LERI - Murcia/Alcantarilla
Actualización: 20/01/2019 12:00
Mostly Cloudy
Mostly Cloudy
 Viento del varies
Viento: varies 4 km/h
Temperatura: 12°C
Rocío: 9°C
Humedad: 82%
Barómetro: 1009 hPa
Nubosidad: Mostly Cloudy
Visibilidad: 10 km
Cloud details: Mostly Cloudy 1829 m
2019/01/20 11:00 LERI 201100Z VRB02KT 9999 BKN060 12/09 Q1009 NOSIG
 
LELC - Murcia/San Javier
Actualización: 20/01/2019 12:00
Mostly Cloudy
Mostly Cloudy
 Viento del varies
Viento: varies 4 km/h
Temperatura: 14°C
Rocío: 10°C
Humedad: 77%
Barómetro: 1009 hPa
Nubosidad: Mostly Cloudy
Visibilidad: 10 km
Cloud details: Mostly Cloudy 1646 m
2019/01/20 11:00 LELC 201100Z VRB02KT 9999 BKN054 14/10 Q1009 NOSIG
LEPA - Palma de Mallorca
Actualización: 20/01/2019 12:00
Light drizzle, LLuvia, Muy nuboso
Light drizzle, LLuvia, Muy nuboso
 Viento del NNO
Viento: NNO 7 km/h
Temperatura: 11°C
Rocío: 11°C
Humedad: 100%
Barómetro: 1008 hPa
Resumen: Light drizzle, LLuvia
Nubosidad: Mostly Cloudy
Visibilidad: 6 km
Cloud details: Partly Cloudy 366 m
Partly Cloudy 1219 m
Mostly Cloudy 1676 m
2019/01/20 11:00 LEPA 201100Z 34004KT 6000 -DZRA SCT012 SCT040 BKN055 11/11 Q1008 NOSIG
LEPP - Pamplona
Actualización: 20/01/2019 12:00
Mostly Cloudy
Mostly Cloudy
 Viento del varies
Viento: varies 2 km/h
Temperatura: 6°C
Rocío: 4°C
Humedad: 87%
Barómetro: 1013 hPa
Nubosidad: Mostly Cloudy
Visibilidad: 10 km
Cloud details: Partly Cloudy 518 m
Mostly Cloudy 701 m
2019/01/20 11:00 LEPP 201100Z VRB01KT 9999 SCT017 BKN023 06/04 Q1013
 
LERS - Reus
Actualización: 20/01/2019 12:00
Lluvia débil, Muy nuboso
Lluvia débil, Muy nuboso
 Viento del N
Viento: N 19 km/h
Temperatura: 9°C
Wind Chill: 6°C
Rocío: 5°C
Humedad: 76%
Barómetro: 1010 hPa
Resumen: Light Rain
Nubosidad: Mostly Cloudy
Visibilidad: 10 km
Cloud details: Few Clouds 975 m
Mostly Cloudy 1189 m
2019/01/20 11:00 LERS 201100Z 35010KT 320V020 9999 -RA FEW032 BKN039 09/05 Q1010
LERT - Rota
Actualización: 20/01/2019 12:00
Few Clouds
Few Clouds
 Viento del ONO
Viento: ONO 31 km/h
Temperatura: 13°C
Rocío: 8°C
Humedad: 72%
Barómetro: 1016 hPa
Nubosidad: Few Clouds
Visibilidad: 10 km
Cloud details: Few Clouds 762 m
2019/01/20 11:00 LERT 201100Z 30017KT 260V340 9999 FEW025 13/08 Q1016 NOSIG
LELL - Sabadell
Actualización: 20/01/2019 12:00
Lluvia débil, Cubierto
Lluvia débil, Cubierto
 Viento del NNE
Viento: NNE 11 km/h
Temperatura: 8°C
Wind Chill: 6°C
Rocío: 7°C
Humedad: 93%
Barómetro: 1010 hPa
Resumen: Light Rain
Nubosidad: Cubierto
Visibilidad: 7 km
Cloud details: Few Clouds 457 m
Cubierto 914 m
2019/01/20 11:00 LELL 201100Z 02006KT 320V070 7000 -RA FEW015 OVC030 08/07 Q1010
 
LESA - Salamanca
Actualización: 20/01/2019 12:00
Few Clouds
Few Clouds
 Viento del ONO
Viento: ONO 11 km/h
Temperatura: 5°C
Wind Chill: 2°C
Rocío: 3°C
Humedad: 87%
Barómetro: 1017 hPa
Nubosidad: Few Clouds
Visibilidad: 10 km
Cloud details: Few Clouds 152 m
2019/01/20 11:00 LESA 201100Z 29006KT 250V320 9999 FEW005 05/03 Q1017
LESO - San Sebastián
Actualización: 20/01/2019 12:00
Mostly Cloudy
Mostly Cloudy
 Viento del NO
Viento: NO 6 km/h
Temperatura: 11°C
Rocío: 7°C
Humedad: 77%
Barómetro: 1015 hPa
Nubosidad: Mostly Cloudy
Visibilidad: 10 km
Cloud details: Partly Cloudy 732 m
Mostly Cloudy 1219 m
Mostly Cloudy 1524 m
2019/01/20 11:00 LESO 201100Z 32003KT 260V030 9999 SCT024 BKN040 BKN050 11/07 Q1015
LEXJ - Santander
Actualización: 20/01/2019 12:00
Mostly Cloudy
Mostly Cloudy
 Viento del ONO
Viento: ONO 15 km/h
Temperatura: 11°C
Rocío: 9°C
Humedad: 88%
Barómetro: 1017 hPa
Nubosidad: Mostly Cloudy
Visibilidad: 10 km
Cloud details: Few Clouds 610 m
Partly Cloudy 792 m
Mostly Cloudy 1524 m
2019/01/20 11:00 LEXJ 201100Z 29008KT 250V330 9999 FEW020 SCT026TCU BKN050 11/09 Q1017
 
LEPA - Palma de Mallorca
Actualización: 20/01/2019 12:00
Light drizzle, LLuvia, Muy nuboso
Light drizzle, LLuvia, Muy nuboso
 Viento del NNO
Viento: NNO 7 km/h
Temperatura: 11°C
Rocío: 11°C
Humedad: 100%
Barómetro: 1008 hPa
Resumen: Light drizzle, LLuvia
Nubosidad: Mostly Cloudy
Visibilidad: 6 km
Cloud details: Partly Cloudy 366 m
Partly Cloudy 1219 m
Mostly Cloudy 1676 m
2019/01/20 11:00 LEPA 201100Z 34004KT 6000 -DZRA SCT012 SCT040 BKN055 11/11 Q1008 NOSIG
LEPP - Pamplona
Actualización: 20/01/2019 12:00
Mostly Cloudy
Mostly Cloudy
 Viento del varies
Viento: varies 2 km/h
Temperatura: 6°C
Rocío: 4°C
Humedad: 87%
Barómetro: 1013 hPa
Nubosidad: Mostly Cloudy
Visibilidad: 10 km
Cloud details: Partly Cloudy 518 m
Mostly Cloudy 701 m
2019/01/20 11:00 LEPP 201100Z VRB01KT 9999 SCT017 BKN023 06/04 Q1013
LEST - Santiago de Compostela
Actualización: 20/01/2019 12:00
Mostly Cloudy
Mostly Cloudy
 Viento del N
Viento: N 17 km/h
Temperatura: 9°C
Wind Chill: 7°C
Rocío: 7°C
Humedad: 87%
Barómetro: 1021 hPa
Nubosidad: Mostly Cloudy
Visibilidad: 10 km
Cloud details: Few Clouds 427 m
Partly Cloudy 732 m
Mostly Cloudy 1097 m
2019/01/20 11:00 LEST 201100Z 35009KT 330V030 9999 FEW014 SCT024TCU BKN036 09/07 Q1021 TEMPO 3000 -RA BKN012
 
LEZL - Sevilla
Actualización: 20/01/2019 12:00
Partly Cloudy
Partly Cloudy
 Viento del NNO
Viento: NNO 15 km/h
Temperatura: 15°C
Rocío: 8°C
Humedad: 63%
Barómetro: 1015 hPa
Nubosidad: Partly Cloudy
Visibilidad: 10 km
Cloud details: Partly Cloudy 1219 m
2019/01/20 11:00 LEZL 201100Z 34008KT 300V020 9999 SCT040 15/08 Q1015 NOSIG
GCXO - Tenerife
Actualización: 20/01/2019 12:00
Mostly Cloudy
Mostly Cloudy
 Viento del ONO
Viento: ONO 31 km/h
Temperatura: 13°C
Rocío: 11°C
Humedad: 88%
Barómetro: 1028 hPa
Nubosidad: Mostly Cloudy
Visibilidad: 10 km
Cloud details: Partly Cloudy 366 m
Mostly Cloudy 732 m
2019/01/20 11:00 GCXO 201100Z 30017KT 9999 SCT012 BKN024 13/11 Q1028 NOSIG
GCTS - Tenerife-Sur
Actualización: 20/01/2019 12:00
Mostly Cloudy
Mostly Cloudy
 Viento del SO
Viento: SO 15 km/h
Temperatura: 21°C
Rocío: 10°C
Humedad: 50%
Barómetro: 1028 hPa
Nubosidad: Mostly Cloudy
Visibilidad: 10 km
Cloud details: Mostly Cloudy 1158 m
2019/01/20 11:00 GCTS 201100Z 22008KT 160V260 9999 BKN038 21/10 Q1028 WS R25 NOSIG
 
LEVC - Valencia
Actualización: 20/01/2019 12:00
Mostly Cloudy
Mostly Cloudy
 Viento del NNE
Viento: NNE 7 km/h
Temperatura: 13°C
Rocío: 7°C
Humedad: 67%
Barómetro: 1010 hPa
Nubosidad: Mostly Cloudy
Visibilidad: 10 km
Cloud details: Few Clouds 610 m
Partly Cloudy 1219 m
Mostly Cloudy 1524 m
2019/01/20 11:00 LEVC 201100Z 03004KT 340V080 9999 FEW020 SCT040 BKN050 13/07 Q1010 NOSIG
LEVD - Valladolid
Actualización: 20/01/2019 12:00
Few Clouds
Few Clouds
 Viento del NNO
Viento: NNO 15 km/h
Temperatura: 5°C
Wind Chill: 2°C
Rocío: 2°C
Humedad: 81%
Barómetro: 1015 hPa
Nubosidad: Few Clouds
Visibilidad: 10 km
Cloud details: Few Clouds 914 m
2019/01/20 11:00 LEVD 201100Z 33008KT 300V010 9999 FEW030 05/02 Q1015
LEVX - Vigo
Actualización: 20/01/2019 12:00
Partly Cloudy
Partly Cloudy
 Viento del ENE
Viento: ENE 6 km/h
Temperatura: 10°C
Rocío: 7°C
Humedad: 82%
Barómetro: 1021 hPa
Nubosidad: Partly Cloudy
Visibilidad: 10 km
Cloud details: Partly Cloudy 518 m
Partly Cloudy 701 m
2019/01/20 11:00 LEVX 201100Z 06003KT 330V120 9999 SCT017 SCT023 10/07 Q1021 TEMPO 3000 RA BKN014
 
LEVT - Vitoria
Actualización: 20/01/2019 12:00
Lluvia débil, Showers, Muy nuboso
Lluvia débil, Showers, Muy nuboso
 Viento del NO
Viento: NO 15 km/h
Temperatura: 6°C
Wind Chill: 3°C
Rocío: 4°C
Humedad: 87%
Barómetro: 1015 hPa
Resumen: Lluvia débil, Showers
Nubosidad: Mostly Cloudy
Visibilidad: 10 km
Cloud details: Few Clouds 396 m
Partly Cloudy 853 m
Mostly Cloudy 1372 m
2019/01/20 11:00 LEVT 201100Z 31008KT 270V340 9999 -SHRA FEW013 SCT028TCU BKN045 06/04 Q1015
LEZG - Zaragoza
Actualización: 20/01/2019 12:00
Few Clouds
Few Clouds
 Viento del ONO
Viento: ONO 30 km/h
Temperatura: 9°C
Wind Chill: 5°C
Rocío: 6°C
Humedad: 82%
Barómetro: 1012 hPa
Nubosidad: Few Clouds
Visibilidad: 10 km
Cloud details: Few Clouds 610 m
2019/01/20 11:00 LEZG 201100Z 30016KT 9999 FEW020 09/06 Q1012

La estación de MeteoMurcia.com, publica sus datos en los siguientes proyectos:

Meteoclimatic www.awekas.at

W3Counter
Web Analytics